createdAt,value
2019-05-02T00:02:23.995Z,16.60
2019-05-02T00:04:55.877Z,15.40
2019-05-02T00:07:21.878Z,15.83
2019-05-02T00:09:50.445Z,16.17
2019-05-02T00:12:20.664Z,17.13
2019-05-02T00:14:48.860Z,16.60
2019-05-02T00:17:20.145Z,16.73
2019-05-02T00:19:49.889Z,16.60
2019-05-02T00:22:19.011Z,17.83
2019-05-02T00:24:47.061Z,16.50
2019-05-02T00:27:15.159Z,17.00
2019-05-02T00:29:44.646Z,16.20
2019-05-02T00:32:12.648Z,16.63
2019-05-02T00:34:40.822Z,18.37
2019-05-02T00:37:08.914Z,17.67
2019-05-02T00:39:37.545Z,17.23
2019-05-02T00:42:12.786Z,18.07
2019-05-02T00:44:41.998Z,17.37
2019-05-02T00:47:19.783Z,17.57
2019-05-02T00:49:48.434Z,16.70
2019-05-02T00:52:16.660Z,19.83
2019-05-02T00:54:46.539Z,18.30
2019-05-02T00:57:19.906Z,18.90
2019-05-02T00:59:46.295Z,18.27
2019-05-02T01:02:22.150Z,18.03
2019-05-02T01:04:50.736Z,17.60
2019-05-02T01:07:24.948Z,17.30
2019-05-02T01:09:50.070Z,19.15
2019-05-02T01:12:26.337Z,18.13
2019-05-02T01:14:49.274Z,18.30
2019-05-02T01:17:17.373Z,17.33
2019-05-02T01:19:47.417Z,16.50
2019-05-02T01:22:15.997Z,15.97
2019-05-02T01:24:45.156Z,16.07
2019-05-02T01:27:41.288Z,17.23
2019-05-02T01:30:22.020Z,16.67
2019-05-02T01:33:18.511Z,16.67
2019-05-02T01:36:06.400Z,16.40
2019-05-02T01:38:46.546Z,16.17
2019-05-02T01:41:14.759Z,17.17
2019-05-02T01:43:42.847Z,16.67
2019-05-02T01:46:10.903Z,17.47
2019-05-02T01:48:40.191Z,16.80
2019-05-02T01:51:12.046Z,16.50
2019-05-02T01:53:38.613Z,16.53
2019-05-02T01:56:06.677Z,15.90
2019-05-02T01:58:34.781Z,15.90
2019-05-02T02:01:03.331Z,17.83
2019-05-02T02:03:31.382Z,18.27
2019-05-02T02:06:02.897Z,16.20
2019-05-02T02:08:32.551Z,17.57
2019-05-02T02:10:59.188Z,18.23
2019-05-02T02:13:31.298Z,17.10
2019-05-02T02:16:00.193Z,17.23
2019-05-02T02:18:29.443Z,16.33
2019-05-02T02:21:08.244Z,17.13
2019-05-02T02:23:50.957Z,17.13
2019-05-02T02:26:19.949Z,16.17
2019-05-02T02:28:48.142Z,16.93
2019-05-02T02:31:17.745Z,17.47
2019-05-02T02:33:47.572Z,17.20
2019-05-02T02:36:30.285Z,15.60
2019-05-02T02:38:48.781Z,15.50
2019-05-02T02:41:17.422Z,16.57
2019-05-02T02:43:48.702Z,15.17
2019-05-02T02:46:36.969Z,15.77
2019-05-02T02:49:00.222Z,15.13
2019-05-02T02:51:30.038Z,14.97
2019-05-02T02:54:03.907Z,15.27
2019-05-02T02:56:27.971Z,13.40
2019-05-02T02:58:56.113Z,14.30
2019-05-02T03:01:28.904Z,13.27
2019-05-02T03:03:54.214Z,13.13
2019-05-02T03:06:22.518Z,13.53
2019-05-02T03:08:50.567Z,13.67
2019-05-02T03:11:23.516Z,13.27
2019-05-02T03:14:06.371Z,13.93
2019-05-02T03:16:30.970Z,12.97
2019-05-02T03:19:00.743Z,13.27
2019-05-02T03:21:28.777Z,12.60
2019-05-02T03:24:03.552Z,13.23
2019-05-02T03:26:26.960Z,12.80
2019-05-02T03:28:58.657Z,13.10
2019-05-02T03:31:30.561Z,12.20
2019-05-02T03:34:00.163Z,13.23
2019-05-02T03:36:34.418Z,12.83
2019-05-02T03:38:54.337Z,12.63
2019-05-02T03:41:23.550Z,13.23
2019-05-02T03:44:09.142Z,12.27
2019-05-02T03:46:22.778Z,12.53
2019-05-02T03:48:50.954Z,13.20
2019-05-02T03:51:21.401Z,13.10
2019-05-02T03:53:48.728Z,12.70
2019-05-02T03:56:16.813Z,12.87
2019-05-02T03:58:48.456Z,12.97
2019-05-02T04:01:14.793Z,13.77
2019-05-02T04:03:43.788Z,13.40
2019-05-02T04:06:13.827Z,13.13
2019-05-02T04:08:41.848Z,13.40
2019-05-02T04:11:20.882Z,14.37
2019-05-02T04:13:49.272Z,12.67
2019-05-02T04:16:18.351Z,12.97
2019-05-02T04:18:54.696Z,13.80
2019-05-02T04:21:16.454Z,13.27
2019-05-02T04:23:44.957Z,13.40
2019-05-02T04:26:14.671Z,13.43
2019-05-02T04:28:45.361Z,13.10
2019-05-02T04:31:12.623Z,12.20
2019-05-02T04:33:40.721Z,13.20
2019-05-02T04:36:15.338Z,13.17
2019-05-02T04:38:46.682Z,11.07
2019-05-02T04:41:09.283Z,10.80
2019-05-02T04:43:43.091Z,10.57
2019-05-02T04:46:11.700Z,10.90
2019-05-02T04:48:43.807Z,10.87
2019-05-02T04:51:14.197Z,11.60
2019-05-02T04:53:42.308Z,10.53
2019-05-02T04:56:10.714Z,10.70
2019-05-02T04:58:40.527Z,11.47
2019-05-02T05:01:09.919Z,11.43
2019-05-02T05:03:38.333Z,11.48
2019-05-02T05:06:10.048Z,11.47
2019-05-02T05:08:38.793Z,10.63
2019-05-02T05:11:07.765Z,11.17
2019-05-02T05:13:37.405Z,11.97
2019-05-02T05:16:08.677Z,11.93
2019-05-02T05:18:37.619Z,23.20
2019-05-02T05:21:07.758Z,12.67
2019-05-02T05:24:07.744Z,11.13
2019-05-02T05:26:40.990Z,10.97
2019-05-02T05:29:08.454Z,10.70
2019-05-02T05:31:38.220Z,11.60
2019-05-02T05:34:08.020Z,11.43
2019-05-02T05:36:37.513Z,11.03
2019-05-02T05:39:08.534Z,11.37
2019-05-02T05:41:37.811Z,9.47
2019-05-02T05:44:07.777Z,13.13
2019-05-02T05:46:40.963Z,10.77
2019-05-02T05:49:05.508Z,10.83
2019-05-02T05:51:33.780Z,12.30
2019-05-02T05:54:03.715Z,11.47
2019-05-02T05:56:32.610Z,10.97
2019-05-02T05:59:01.530Z,11.73
2019-05-02T06:01:34.437Z,10.73
2019-05-02T06:03:59.389Z,9.87
2019-05-02T06:06:27.606Z,10.70
2019-05-02T06:08:55.738Z,10.07
2019-05-02T06:11:23.948Z,9.40
2019-05-02T06:13:52.172Z,10.10
2019-05-02T06:16:20.280Z,8.77
2019-05-02T06:18:49.850Z,8.23
2019-05-02T06:21:17.956Z,10.33
2019-05-02T06:23:46.133Z,8.80
2019-05-02T06:26:15.573Z,9.40
2019-05-02T06:28:44.958Z,12.23
2019-05-02T06:31:13.057Z,10.00
2019-05-02T06:33:41.139Z,8.67
2019-05-02T06:36:09.295Z,8.63
2019-05-02T06:38:37.511Z,9.97
2019-05-02T06:41:05.617Z,9.63
2019-05-02T06:43:33.648Z,8.57
2019-05-02T06:46:15.454Z,8.83
2019-05-02T06:48:33.359Z,9.30
2019-05-02T06:51:03.789Z,8.30
2019-05-02T06:53:34.993Z,8.60
2019-05-02T06:56:03.065Z,8.90
2019-05-02T06:58:31.137Z,8.00
2019-05-02T07:01:00.155Z,8.17
2019-05-02T07:03:29.271Z,8.90
2019-05-02T07:05:58.726Z,7.30
2019-05-02T07:08:28.357Z,8.23
2019-05-02T07:11:01.272Z,9.10
2019-05-02T07:13:29.617Z,9.50
2019-05-02T07:16:14.923Z,9.13
2019-05-02T07:18:51.061Z,9.97
2019-05-02T07:21:23.580Z,9.83
2019-05-02T07:23:53.765Z,10.40
2019-05-02T07:26:23.277Z,10.43
2019-05-02T07:28:53.796Z,13.30
2019-05-02T07:31:23.111Z,10.57
2019-05-02T07:33:53.920Z,10.90
2019-05-02T07:36:23.513Z,12.00
2019-05-02T07:38:57.474Z,11.60
2019-05-02T07:41:24.092Z,12.90
2019-05-02T07:43:56.316Z,12.77
2019-05-02T07:46:25.477Z,14.07
2019-05-02T07:48:54.982Z,14.67
2019-05-02T07:51:25.994Z,14.10
2019-05-02T07:53:56.044Z,13.43
2019-05-02T07:56:24.282Z,13.97
2019-05-02T07:58:52.624Z,14.43
2019-05-02T08:01:20.875Z,14.77
2019-05-02T08:03:49.082Z,13.80
2019-05-02T08:06:17.348Z,14.17
2019-05-02T08:08:45.537Z,13.30
2019-05-02T08:11:13.677Z,13.80
2019-05-02T08:13:41.741Z,12.77
2019-05-02T08:16:09.896Z,13.90
2019-05-02T08:18:38.134Z,14.23
2019-05-02T08:21:06.358Z,12.70
2019-05-02T08:23:34.481Z,13.97
2019-05-02T08:26:02.534Z,13.60
2019-05-02T08:28:47.087Z,13.13
2019-05-02T08:31:18.886Z,12.27
2019-05-02T08:33:46.747Z,14.00
2019-05-02T08:36:16.408Z,13.03
2019-05-02T08:38:44.548Z,17.93
2019-05-02T08:41:13.563Z,13.03
2019-05-02T08:43:44.939Z,12.87
2019-05-02T08:46:14.560Z,13.80
2019-05-02T08:48:43.747Z,14.20
2019-05-02T08:51:12.285Z,13.70
2019-05-02T08:53:40.464Z,14.30
2019-05-02T08:56:08.532Z,13.20
2019-05-02T08:58:36.816Z,14.30
2019-05-02T09:01:09.083Z,13.27
2019-05-02T09:03:53.927Z,14.47
2019-05-02T09:06:06.222Z,14.90
2019-05-02T09:08:34.719Z,15.43
2019-05-02T09:11:02.868Z,15.23
2019-05-02T09:13:33.025Z,14.53
2019-05-02T09:16:03.640Z,14.37
2019-05-02T09:18:38.771Z,15.97
2019-05-02T09:21:02.045Z,14.63
2019-05-02T09:23:33.101Z,15.07
2019-05-02T09:25:59.861Z,15.87
2019-05-02T09:28:27.864Z,18.57
2019-05-02T09:31:01.801Z,17.00
2019-05-02T09:33:27.004Z,15.83
2019-05-02T09:35:55.185Z,15.37
2019-05-02T09:38:23.426Z,15.33
2019-05-02T09:40:54.587Z,15.47
2019-05-02T09:43:22.859Z,16.77
2019-05-02T09:45:52.035Z,14.60
2019-05-02T09:48:22.840Z,15.33
2019-05-02T09:50:49.928Z,16.90
2019-05-02T09:53:20.878Z,16.33
2019-05-02T09:55:50.405Z,16.27
2019-05-02T09:58:21.250Z,16.27
2019-05-02T10:01:06.846Z,17.77
2019-05-02T10:03:35.104Z,16.47
2019-05-02T10:06:03.361Z,16.03
2019-05-02T10:08:32.114Z,16.83
2019-05-02T10:11:02.163Z,16.10
2019-05-02T10:13:31.871Z,17.87
2019-05-02T10:16:01.931Z,17.90
2019-05-02T10:18:30.395Z,17.80
2019-05-02T10:20:59.276Z,17.30
2019-05-02T10:23:27.446Z,16.97
2019-05-02T10:25:55.593Z,16.87
2019-05-02T10:28:23.869Z,16.90
2019-05-02T10:30:56.890Z,16.27
2019-05-02T10:33:22.523Z,15.67
2019-05-02T10:35:52.474Z,15.90
2019-05-02T10:38:22.767Z,15.73
2019-05-02T10:40:54.798Z,15.67
2019-05-02T10:43:22.169Z,16.40
2019-05-02T10:45:56.485Z,16.53
2019-05-02T10:48:28.471Z,16.07
2019-05-02T10:50:56.257Z,16.27
2019-05-02T10:53:24.403Z,15.37
2019-05-02T10:55:52.776Z,16.40
2019-05-02T10:58:26.237Z,15.23
2019-05-02T11:00:52.495Z,16.00
2019-05-02T11:03:29.446Z,16.23
2019-05-02T11:06:05.441Z,16.27
2019-05-02T11:08:29.078Z,15.67
2019-05-02T11:10:57.156Z,15.57
2019-05-02T11:13:45.120Z,15.13
2019-05-02T11:16:38.242Z,15.23
2019-05-02T11:19:13.108Z,15.40
2019-05-02T11:21:53.474Z,15.10
2019-05-02T11:24:13.784Z,14.90
2019-05-02T11:26:42.835Z,14.37
2019-05-02T11:29:12.135Z,14.80
2019-05-02T11:31:42.599Z,15.17
2019-05-02T11:34:12.183Z,15.03
2019-05-02T11:36:41.545Z,15.27
2019-05-02T11:39:18.262Z,16.17
2019-05-02T11:41:42.265Z,16.03
2019-05-02T11:44:12.279Z,15.03
2019-05-02T11:46:44.466Z,16.03
2019-05-02T11:49:13.310Z,15.73
2019-05-02T11:51:42.277Z,15.23
2019-05-02T11:54:12.930Z,15.03
2019-05-02T11:56:48.974Z,14.50
2019-05-02T11:59:14.747Z,14.43
2019-05-02T12:01:56.785Z,17.50
2019-05-02T12:04:16.972Z,14.40
2019-05-02T12:06:49.976Z,14.37
2019-05-02T12:09:17.277Z,14.60
2019-05-02T12:11:47.408Z,14.00
2019-05-02T12:14:16.180Z,14.73
2019-05-02T12:16:44.755Z,15.80
2019-05-02T12:19:14.965Z,15.20
2019-05-02T12:21:46.094Z,14.83
2019-05-02T12:24:14.442Z,15.30
2019-05-02T12:26:42.722Z,16.00
2019-05-02T12:29:12.204Z,14.10
2019-05-02T12:31:42.511Z,13.67
2019-05-02T12:34:12.025Z,15.47
2019-05-02T12:36:42.615Z,14.73
2019-05-02T12:39:12.633Z,14.80
2019-05-02T12:41:44.689Z,13.00
2019-05-02T12:44:15.462Z,13.70
2019-05-02T12:46:43.710Z,13.30
2019-05-02T12:49:24.359Z,12.73
2019-05-02T12:51:43.025Z,12.43
2019-05-02T12:54:13.025Z,12.43
2019-05-02T12:56:42.012Z,11.37
2019-05-02T12:59:11.858Z,12.80
2019-05-02T13:01:42.167Z,12.80
2019-05-02T13:04:12.555Z,11.40
2019-05-02T13:06:42.170Z,12.40
2019-05-02T13:09:12.745Z,13.77
2019-05-02T13:11:46.738Z,12.93
2019-05-02T13:14:18.924Z,11.30
2019-05-02T13:16:46.095Z,14.90
2019-05-02T13:19:15.113Z,12.77
2019-05-02T13:22:08.767Z,11.17
2019-05-02T13:24:46.877Z,11.43
2019-05-02T13:27:17.147Z,23.70
2019-05-02T13:29:45.255Z,13.87
2019-05-02T13:32:32.449Z,13.27
2019-05-02T13:35:27.548Z,12.10
2019-05-02T13:37:57.728Z,13.53
2019-05-02T13:40:32.229Z,13.50
2019-05-02T13:43:01.805Z,12.23
2019-05-02T13:45:49.029Z,12.23
2019-05-02T13:48:19.265Z,13.07
2019-05-02T13:50:47.442Z,13.00
2019-05-02T13:53:15.854Z,13.30
2019-05-02T13:55:50.088Z,13.90
2019-05-02T13:58:21.583Z,14.50
2019-05-02T14:00:48.983Z,15.67
2019-05-02T14:03:17.141Z,14.70
2019-05-02T14:05:50.736Z,13.80
2019-05-02T14:08:39.856Z,14.37
2019-05-02T14:11:25.902Z,13.93
2019-05-02T14:13:54.812Z,14.00
2019-05-02T14:16:23.097Z,14.70
2019-05-02T14:18:53.030Z,15.43
2019-05-02T14:21:22.401Z,15.27
2019-05-02T14:23:52.322Z,14.23
2019-05-02T14:26:30.282Z,14.67
2019-05-02T14:28:53.326Z,15.37
2019-05-02T14:31:21.744Z,16.07
2019-05-02T14:34:09.015Z,15.00
2019-05-02T14:36:37.319Z,16.20
2019-05-02T14:39:05.624Z,15.47
2019-05-02T14:41:40.444Z,21.57
2019-05-02T14:44:03.925Z,16.83
2019-05-02T14:46:37.526Z,15.47
2019-05-02T14:49:02.760Z,16.10
2019-05-02T14:51:34.837Z,15.80
2019-05-02T14:54:07.731Z,16.37
2019-05-02T14:56:57.358Z,16.03
2019-05-02T14:59:25.464Z,17.50
2019-05-02T15:01:57.830Z,16.87
2019-05-02T15:04:26.316Z,16.50
2019-05-02T15:06:54.365Z,18.53
2019-05-02T15:09:26.628Z,17.83
2019-05-02T15:12:02.888Z,17.40
2019-05-02T15:14:32.887Z,18.23
2019-05-02T15:17:02.707Z,16.17
2019-05-02T15:19:32.917Z,17.20
2019-05-02T15:22:02.275Z,16.80
2019-05-02T15:24:33.268Z,17.13
2019-05-02T15:27:03.709Z,16.97
2019-05-02T15:29:32.133Z,17.37
2019-05-02T15:32:09.876Z,19.97
2019-05-02T15:34:55.494Z,18.27
2019-05-02T15:37:25.710Z,17.70
2019-05-02T15:42:25.539Z,17.50
2019-05-02T15:44:57.056Z,17.47
2019-05-02T15:47:23.314Z,17.73
2019-05-02T15:49:52.758Z,17.27
2019-05-02T15:52:27.754Z,17.93
2019-05-02T15:54:59.908Z,18.67
2019-05-02T15:57:25.690Z,18.07
2019-05-02T15:59:53.732Z,18.93
2019-05-02T16:02:26.368Z,20.90
2019-05-02T16:04:57.125Z,22.53
2019-05-02T16:07:25.684Z,20.70
2019-05-02T16:09:57.238Z,20.33
2019-05-02T16:12:27.128Z,17.93
2019-05-02T16:14:55.055Z,17.17
2019-05-02T16:17:28.171Z,19.33
2019-05-02T16:20:06.878Z,17.33
2019-05-02T16:22:29.107Z,17.73
2019-05-02T16:24:57.874Z,18.57
2019-05-02T16:27:47.778Z,17.40
2019-05-02T16:30:16.472Z,17.77
2019-05-02T16:32:54.678Z,18.03
2019-05-02T16:35:24.429Z,16.97
2019-05-02T16:37:55.963Z,17.67
2019-05-02T16:40:30.007Z,17.43
2019-05-02T16:42:52.840Z,18.53
2019-05-02T16:45:22.222Z,17.83
2019-05-02T16:47:58.558Z,18.73
2019-05-02T16:50:22.882Z,18.23
2019-05-02T16:52:53.074Z,19.30
2019-05-02T16:55:26.309Z,18.97
2019-05-02T16:57:56.724Z,18.60
2019-05-02T17:00:24.978Z,18.57
2019-05-02T17:02:53.858Z,18.17
2019-05-02T17:05:22.504Z,18.50
2019-05-02T17:08:18.603Z,17.73
2019-05-02T17:11:02.417Z,18.50
2019-05-02T17:13:34.293Z,17.77
2019-05-02T17:16:06.865Z,19.27
2019-05-02T17:18:30.318Z,19.43
2019-05-02T17:20:58.840Z,20.80
2019-05-02T17:23:26.959Z,20.07
2019-05-02T17:25:55.576Z,19.90
2019-05-02T17:28:23.748Z,20.10
2019-05-02T17:30:53.135Z,19.00
2019-05-02T17:33:21.767Z,21.50
2019-05-02T17:35:51.546Z,21.60
2019-05-02T17:38:24.958Z,22.40
2019-05-02T17:40:51.819Z,25.10
2019-05-02T17:43:19.473Z,24.57
2019-05-02T17:45:47.929Z,24.97
2019-05-02T17:48:17.808Z,27.90
2019-05-02T17:51:04.920Z,25.67
2019-05-02T17:53:40.918Z,24.07
2019-05-02T17:56:02.875Z,24.33
2019-05-02T17:58:32.152Z,24.80
2019-05-02T18:01:02.562Z,24.33
2019-05-02T18:03:34.973Z,26.00
2019-05-02T18:06:02.526Z,23.43
2019-05-02T18:08:31.945Z,23.77
2019-05-02T18:11:02.701Z,24.20
2019-05-02T18:13:33.851Z,24.50
2019-05-02T18:16:00.111Z,25.67
2019-05-02T18:18:28.268Z,25.47
2019-05-02T18:20:56.584Z,25.63
2019-05-02T18:23:27.619Z,27.00
2019-05-02T18:25:57.500Z,27.17
2019-05-02T18:28:26.325Z,25.90
2019-05-02T18:30:57.174Z,26.57
2019-05-02T18:33:24.854Z,25.87
2019-05-02T18:35:52.899Z,26.07
2019-05-02T18:38:22.373Z,24.70
2019-05-02T18:40:52.155Z,24.10
2019-05-02T18:43:22.278Z,24.17
2019-05-02T18:45:51.540Z,22.07
2019-05-02T18:48:21.787Z,27.23
2019-05-02T18:50:50.147Z,25.17
2019-05-02T18:53:24.270Z,23.70
2019-05-02T18:55:51.710Z,24.33
2019-05-02T18:58:19.949Z,23.27
2019-05-02T19:00:47.934Z,24.73
2019-05-02T19:03:17.464Z,22.73
2019-05-02T19:05:46.749Z,25.23
2019-05-02T19:08:15.089Z,24.80
2019-05-02T19:11:01.333Z,24.73
2019-05-02T19:13:13.927Z,25.70
2019-05-02T19:15:45.171Z,24.80
2019-05-02T19:18:17.990Z,23.83
2019-05-02T19:21:07.304Z,23.83
2019-05-02T19:23:36.642Z,24.27
2019-05-02T19:26:12.460Z,24.57
2019-05-02T19:28:53.536Z,25.13
2019-05-02T19:31:23.686Z,23.17
2019-05-02T19:33:52.753Z,23.60
2019-05-02T19:36:27.435Z,24.53
2019-05-02T19:38:52.569Z,25.60
2019-05-02T19:41:22.301Z,25.80
2019-05-02T19:43:52.977Z,24.93
2019-05-02T19:46:24.566Z,24.60
2019-05-02T19:48:51.425Z,24.30
2019-05-02T19:51:20.330Z,25.13
2019-05-02T19:53:53.490Z,24.63
2019-05-02T19:56:21.868Z,24.60
2019-05-02T19:58:51.795Z,24.80
2019-05-02T20:01:22.942Z,24.80
2019-05-02T20:03:51.927Z,23.10
2019-05-02T20:06:21.967Z,25.03
2019-05-02T20:08:52.474Z,24.90
2019-05-02T20:11:21.830Z,23.60
2019-05-02T20:13:50.493Z,23.20
2019-05-02T20:16:44.084Z,24.20
2019-05-02T20:19:09.782Z,21.90
2019-05-02T20:21:43.719Z,24.37
2019-05-02T20:24:15.232Z,24.50
2019-05-02T20:26:46.575Z,23.97
2019-05-02T20:29:12.360Z,22.80
2019-05-02T20:31:41.125Z,24.80
2019-05-02T20:34:09.262Z,22.77
2019-05-02T20:36:38.879Z,25.03
2019-05-02T20:39:07.919Z,22.57
2019-05-02T20:41:36.224Z,23.60
2019-05-02T20:44:04.659Z,23.47
2019-05-02T20:46:33.336Z,24.70
2019-05-02T20:49:04.550Z,25.17
2019-05-02T20:51:32.693Z,24.73
2019-05-02T20:54:01.924Z,22.80
2019-05-02T20:56:31.956Z,19.30
2019-05-02T20:59:01.875Z,16.47
2019-05-02T21:01:31.678Z,17.77
2019-05-02T21:04:02.562Z,15.00
2019-05-02T21:06:41.950Z,14.27
2019-05-02T21:09:28.530Z,14.53
2019-05-02T21:12:02.090Z,13.77
2019-05-02T21:14:30.334Z,12.00
2019-05-02T21:16:58.342Z,12.70
2019-05-02T21:19:28.230Z,12.73
2019-05-02T21:21:56.460Z,11.93
2019-05-02T21:24:24.595Z,12.07
2019-05-02T21:26:52.759Z,11.80
2019-05-02T21:29:22.771Z,11.03
2019-05-02T21:31:52.432Z,12.00
2019-05-02T21:34:22.268Z,11.90
2019-05-02T21:36:52.584Z,12.07
2019-05-02T21:39:22.383Z,12.23
2019-05-02T21:41:51.662Z,12.77
2019-05-02T21:44:19.851Z,12.10
2019-05-02T21:46:48.036Z,13.00
2019-05-02T21:49:35.088Z,14.20
2019-05-02T21:52:14.705Z,14.27
2019-05-02T21:54:52.610Z,12.03
2019-05-02T21:57:22.596Z,10.53
2019-05-02T21:59:52.401Z,10.50
2019-05-02T22:02:22.557Z,7.60
2019-05-02T22:04:52.775Z,7.77
2019-05-02T22:07:21.786Z,6.47
2019-05-02T22:09:52.265Z,7.40
2019-05-02T22:12:19.853Z,6.70
2019-05-02T22:14:47.993Z,5.80
2019-05-02T22:17:17.204Z,5.50
2019-05-02T22:19:45.276Z,5.70
2019-05-02T22:22:13.348Z,5.10
2019-05-02T22:24:42.115Z,4.93
2019-05-02T22:27:12.330Z,4.70
2019-05-02T22:29:43.013Z,4.80
2019-05-02T22:32:12.312Z,4.93
2019-05-02T22:34:45.139Z,3.97
2019-05-02T22:37:12.563Z,4.93
2019-05-02T22:39:49.136Z,4.13
2019-05-02T22:42:17.599Z,4.27
2019-05-02T22:44:45.779Z,4.10
2019-05-02T22:47:14.257Z,4.33
2019-05-02T22:49:42.536Z,4.37
2019-05-02T22:52:12.191Z,4.07
2019-05-02T22:54:41.643Z,3.93
2019-05-02T22:57:11.530Z,4.57
2019-05-02T22:59:42.295Z,3.77
2019-05-02T23:02:12.591Z,3.83
2019-05-02T23:04:41.747Z,4.17
2019-05-02T23:07:12.551Z,4.57
2019-05-02T23:09:43.446Z,4.17
2019-05-02T23:12:10.744Z,3.90
2019-05-02T23:14:38.908Z,4.13
2019-05-02T23:17:07.086Z,3.80
2019-05-02T23:19:35.346Z,3.90
2019-05-02T23:22:03.419Z,3.90
2019-05-02T23:25:02.930Z,3.83
2019-05-02T23:27:52.734Z,4.27
2019-05-02T23:30:22.664Z,4.27
2019-05-02T23:32:51.700Z,4.83
2019-05-02T23:35:19.843Z,4.50
2019-05-02T23:37:47.966Z,4.77
2019-05-02T23:40:16.152Z,4.60
2019-05-02T23:42:44.314Z,4.30
2019-05-02T23:45:12.599Z,5.73
2019-05-02T23:47:42.204Z,5.57
2019-05-02T23:50:12.125Z,5.20
2019-05-02T23:52:40.554Z,5.77
2019-05-02T23:55:08.881Z,5.73
2019-05-02T23:57:37.007Z,4.67
